Time;durP1;ratioP1;P1;durP2;ratioP2;P2;SDS_P1;SDS_P2;PMS_P1;PMS_P2;Temp;Humidity;BMP_temperature;BMP_pressure;BME280_temperature;BME280_humidity;BME280_pressure;Samples;Min_cycle;Max_cycle;Signal;HPM_P1;HPM_P2
2024/01/04 00:02:21;;;;;;;;;;;;;;;7.80;76.39;98644.75;5044203;28;19936;-81
2024/01/04 00:04:48;;;;;;;;;;;;;;;7.77;76.86;98637.88;5046612;28;19929;-81
2024/01/04 00:07:15;;;;;;;;;;;;;;;7.77;76.89;98657.91;5047725;28;19940;-81
2024/01/04 00:09:42;;;;;;;;;;;;;;;7.71;77.04;98634.63;5045771;28;19940;-81
2024/01/04 00:12:09;;;;;;;;;;;;;;;7.79;76.41;98650.88;5046236;28;20023;-80
2024/01/04 00:14:36;;;;;;;;;;;;;;;7.65;77.39;98660.00;5048631;28;20380;-80
2024/01/04 00:17:03;;;;;;;;;;;;;;;7.87;75.56;98659.34;5047137;28;19925;-83
2024/01/04 00:19:29;;;;;;;;;;;;;;;7.65;77.08;98660.00;5046059;28;20356;-79
2024/01/04 00:21:56;;;;;;;;;;;;;;;7.59;77.71;98670.66;5055444;28;19939;-81
2024/01/04 00:24:23;;;;;;;;;;;;;;;7.65;77.35;98680.91;5044624;28;19932;-82
2024/01/04 00:26:49;;;;;;;;;;;;;;;7.68;77.79;98695.63;5042833;28;19933;-82
2024/01/04 00:29:16;;;;;;;;;;;;;;;7.60;78.49;98687.16;5046427;28;19933;-81
2024/01/04 00:31:43;;;;;;;;;;;;;;;7.50;78.93;98686.59;5035352;28;20062;-83
2024/01/04 00:34:09;;;;;;;;;;;;;;;7.55;78.43;98684.69;5041037;28;19928;-82
2024/01/04 00:36:36;;;;;;;;;;;;;;;7.59;78.47;98701.97;5044406;28;20003;-81
2024/01/04 00:39:03;;;;;;;;;;;;;;;7.61;78.24;98696.72;5055226;28;20387;-81
2024/01/04 00:41:29;;;;;;;;;;;;;;;7.53;78.60;98702.19;5049931;28;19925;-82
2024/01/04 00:43:56;;;;;;;;;;;;;;;7.44;79.47;98705.03;5047679;28;19932;-84
2024/01/04 00:46:23;;;;;;;;;;;;;;;7.53;79.00;98706.53;5049515;28;19931;-82
2024/01/04 00:48:50;;;;;;;;;;;;;;;7.55;79.13;98726.47;5051651;28;19932;-80
2024/01/04 00:51:16;;;;;;;;;;;;;;;7.48;79.63;98714.50;5053758;28;19925;-80
2024/01/04 00:53:43;;;;;;;;;;;;;;;7.39;80.07;98699.13;5049933;28;19925;-80
2024/01/04 00:56:10;;;;;;;;;;;;;;;7.49;79.47;98709.22;5038665;28;20020;-83
2024/01/04 00:58:37;;;;;;;;;;;;;;;7.45;79.72;98725.88;5051468;28;19933;-82
2024/01/04 01:01:04;;;;;;;;;;;;;;;7.50;79.38;98720.50;5053006;28;19925;-81
2024/01/04 01:03:31;;;;;;;;;;;;;;;7.48;79.75;98706.66;5053932;28;20635;-81
2024/01/04 01:05:57;;;;;;;;;;;;;;;7.55;79.22;98704.75;5052899;28;19925;-86
2024/01/04 01:08:25;;;;;;;;;;;;;;;7.60;78.98;98716.75;5054073;28;20299;-83
2024/01/04 01:10:51;;;;;;;;;;;;;;;7.56;79.22;98709.91;5053591;28;19932;-82
2024/01/04 01:13:20;;;;;;;;;;;;;;;7.50;79.82;98712.69;5060804;28;20006;-81
2024/01/04 01:15:47;;;;;;;;;;;;;;;7.55;79.70;98697.75;5066036;28;20217;-80
2024/01/04 01:18:13;;;;;;;;;;;;;;;7.66;78.96;98687.84;5057801;28;19929;-80
2024/01/04 01:20:40;;;;;;;;;;;;;;;7.82;77.60;98697.78;5062307;28;19931;-82
2024/01/04 01:23:07;;;;;;;;;;;;;;;7.70;77.93;98701.63;5052883;28;20372;-82
2024/01/04 01:25:34;;;;;;;;;;;;;;;7.86;77.23;98709.84;5051457;28;19932;-80
2024/01/04 01:28:01;;;;;;;;;;;;;;;7.84;77.24;98748.22;5061268;28;19979;-82
2024/01/04 01:30:29;;;;;;;;;;;;;;;7.91;76.54;98712.34;5064272;28;19929;-80
2024/01/04 01:32:56;;;;;;;;;;;;;;;7.80;76.82;98723.94;5051718;28;19970;-80
2024/01/04 01:35:23;;;;;;;;;;;;;;;7.96;75.78;98719.09;5052307;28;19978;-80
2024/01/04 01:37:50;;;;;;;;;;;;;;;7.83;76.68;98720.41;5055695;28;19951;-80
2024/01/04 01:40:16;;;;;;;;;;;;;;;7.91;75.85;98722.78;5059914;28;19932;-81
2024/01/04 01:42:47;;;;;;;;;;;;;;;7.83;76.34;98700.38;5055962;28;20020;-81
2024/01/04 01:45:15;;;;;;;;;;;;;;;7.92;75.58;98709.69;5057081;28;19964;-80
2024/01/04 01:47:41;;;;;;;;;;;;;;;7.92;75.64;98741.03;5058340;28;20007;-80
2024/01/04 01:50:09;;;;;;;;;;;;;;;7.98;74.90;98730.38;5056287;28;19947;-80
2024/01/04 01:52:36;;;;;;;;;;;;;;;8.03;74.46;98713.69;5056049;28;19932;-83
2024/01/04 01:55:03;;;;;;;;;;;;;;;8.07;74.33;98707.47;5059722;28;19932;-80
2024/01/04 01:57:32;;;;;;;;;;;;;;;7.98;74.81;98711.22;5056338;28;19924;-81
2024/01/04 01:59:59;;;;;;;;;;;;;;;7.93;75.09;98742.72;5057593;28;20003;-81
2024/01/04 02:02:27;;;;;;;;;;;;;;;7.90;75.66;98732.34;5053787;28;19994;-80
2024/01/04 02:04:53;;;;;;;;;;;;;;;7.86;76.42;98758.63;5056711;28;19982;-80
2024/01/04 02:07:20;;;;;;;;;;;;;;;7.86;76.63;98746.41;5059861;28;19956;-80
2024/01/04 02:09:47;;;;;;;;;;;;;;;7.88;76.41;98730.69;5055940;28;19986;-80
2024/01/04 02:12:14;;;;;;;;;;;;;;;7.87;76.13;98729.84;5059143;28;19976;-80
2024/01/04 02:14:41;;;;;;;;;;;;;;;7.73;77.04;98734.63;5068568;28;19925;-80
2024/01/04 02:17:08;;;;;;;;;;;;;;;7.72;77.31;98738.16;5048975;28;20019;-80
2024/01/04 02:19:35;;;;;;;;;;;;;;;7.75;77.07;98758.94;5055798;28;20012;-81
2024/01/04 02:22:02;;;;;;;;;;;;;;;7.65;77.63;98759.22;5050832;28;19960;-81
2024/01/04 02:24:29;;;;;;;;;;;;;;;7.69;77.52;98764.34;5050592;28;20011;-80
2024/01/04 02:26:56;;;;;;;;;;;;;;;7.61;78.11;98772.41;5055160;28;19933;-80
2024/01/04 02:29:22;;;;;;;;;;;;;;;7.58;78.61;98786.41;5054713;28;19925;-80
2024/01/04 02:31:49;;;;;;;;;;;;;;;7.56;78.45;98796.06;5054637;28;19968;-80
2024/01/04 02:34:16;;;;;;;;;;;;;;;7.58;77.89;98788.19;5054994;28;19967;-80
2024/01/04 02:36:43;;;;;;;;;;;;;;;7.54;78.55;98800.44;5051260;28;19925;-80
2024/01/04 02:39:11;;;;;;;;;;;;;;;7.44;79.63;98809.44;5055186;28;19931;-81
2024/01/04 02:41:38;;;;;;;;;;;;;;;7.40;80.07;98797.38;5052291;28;19925;-81
2024/01/04 02:44:05;;;;;;;;;;;;;;;7.44;79.58;98819.88;5053134;28;19932;-80
2024/01/04 02:46:32;;;;;;;;;;;;;;;7.51;78.95;98817.97;5056895;28;19971;-82
2024/01/04 02:48:58;;;;;;;;;;;;;;;7.62;78.14;98823.75;5059685;28;19925;-81
2024/01/04 02:51:25;;;;;;;;;;;;;;;7.60;77.64;98829.00;5049925;28;19925;-81
2024/01/04 02:53:52;;;;;;;;;;;;;;;7.78;75.98;98832.00;5055445;28;19925;-82
2024/01/04 02:56:19;;;;;;;;;;;;;;;7.58;77.55;98836.00;5055597;28;20011;-82
2024/01/04 02:58:45;;;;;;;;;;;;;;;7.52;77.68;98830.09;5056977;28;19948;-81
2024/01/04 03:01:18;;;;;;;;;;;;;;;7.52;77.67;98849.25;5057087;28;19928;-81
2024/01/04 03:03:45;;;;;;;;;;;;;;;7.60;77.38;98852.50;5056296;28;19932;-80
2024/01/04 03:06:12;;;;;;;;;;;;;;;7.47;77.89;98869.38;5055696;28;19932;-81
2024/01/04 03:08:38;;;;;;;;;;;;;;;7.53;77.83;98845.75;5050473;28;19925;-81
2024/01/04 03:11:05;;;;;;;;;;;;;;;7.45;78.48;98853.78;5051997;28;20150;-82
2024/01/04 03:13:32;;;;;;;;;;;;;;;7.47;78.48;98859.81;5057269;28;19931;-81
2024/01/04 03:15:59;;;;;;;;;;;;;;;7.51;78.26;98857.13;5055439;28;19925;-84
2024/01/04 03:18:25;;;;;;;;;;;;;;;7.47;78.41;98861.56;5050301;28;19931;-82
2024/01/04 03:20:52;;;;;;;;;;;;;;;7.58;77.76;98864.72;5049588;28;19925;-81
2024/01/04 03:23:19;;;;;;;;;;;;;;;7.56;77.96;98878.72;5049460;28;19925;-82
2024/01/04 03:25:45;;;;;;;;;;;;;;;7.60;77.67;98860.34;5050369;28;20383;-82
2024/01/04 03:28:12;;;;;;;;;;;;;;;7.60;77.87;98875.13;5051401;28;19925;-82
2024/01/04 03:30:38;;;;;;;;;;;;;;;7.59;78.06;98869.06;5048968;28;19940;-82
2024/01/04 03:33:05;;;;;;;;;;;;;;;7.63;77.40;98883.75;5053533;28;20027;-81
2024/01/04 03:35:32;;;;;;;;;;;;;;;7.70;76.99;98880.97;5055339;28;19947;-82
2024/01/04 03:37:59;;;;;;;;;;;;;;;7.62;77.37;98879.41;5051985;28;19925;-82
2024/01/04 03:40:25;;;;;;;;;;;;;;;7.77;76.56;98885.09;5053942;28;19979;-81
2024/01/04 03:42:52;;;;;;;;;;;;;;;7.66;77.04;98912.38;5053187;28;19931;-84
2024/01/04 03:45:19;;;;;;;;;;;;;;;7.77;76.70;98877.28;5049294;28;19931;-81
2024/01/04 03:47:45;;;;;;;;;;;;;;;7.58;77.62;98882.16;5050107;28;19929;-84
2024/01/04 03:50:12;;;;;;;;;;;;;;;7.59;78.12;98873.41;5052580;28;19925;-82
2024/01/04 03:52:39;;;;;;;;;;;;;;;7.55;78.86;98867.44;5053246;28;19932;-82
2024/01/04 03:55:06;;;;;;;;;;;;;;;7.53;79.20;98871.84;5048362;28;19936;-84
2024/01/04 03:57:32;;;;;;;;;;;;;;;7.48;79.99;98886.78;5053757;28;19964;-82
2024/01/04 04:00:01;;;;;;;;;;;;;;;7.41;80.35;98895.66;5052001;28;19924;-83
2024/01/04 04:02:28;;;;;;;;;;;;;;;7.43;80.06;98896.47;5050041;28;19925;-82
2024/01/04 04:04:57;;;;;;;;;;;;;;;7.49;79.64;98888.50;5047345;28;19944;-81
2024/01/04 04:07:24;;;;;;;;;;;;;;;7.53;78.46;98887.53;5046837;28;19931;-81
2024/01/04 04:09:51;;;;;;;;;;;;;;;7.58;78.02;98862.13;5046429;28;19925;-81
2024/01/04 04:12:17;;;;;;;;;;;;;;;7.51;78.32;98878.84;5053270;28;19932;-83
2024/01/04 04:14:44;;;;;;;;;;;;;;;7.61;77.45;98882.06;5049724;28;19925;-81
2024/01/04 04:17:11;;;;;;;;;;;;;;;7.72;76.77;98889.59;5049284;28;19925;-82
2024/01/04 04:19:37;;;;;;;;;;;;;;;7.63;77.33;98872.44;5051222;28;19925;-82
2024/01/04 04:22:04;;;;;;;;;;;;;;;7.65;77.09;98874.09;5053020;28;19925;-82
2024/01/04 04:24:31;;;;;;;;;;;;;;;7.65;77.50;98884.56;5050112;28;19925;-82
2024/01/04 04:26:58;;;;;;;;;;;;;;;7.58;77.89;98897.81;5050655;28;19929;-86
2024/01/04 04:29:24;;;;;;;;;;;;;;;7.65;77.11;98895.00;5047358;28;20000;-81
2024/01/04 04:31:51;;;;;;;;;;;;;;;7.63;77.06;98920.31;5052973;28;19948;-81
2024/01/04 04:34:18;;;;;;;;;;;;;;;7.76;76.24;98906.88;5050813;28;19929;-81
2024/01/04 04:36:45;;;;;;;;;;;;;;;7.63;76.74;98912.47;5045650;28;19925;-82
2024/01/04 04:39:12;;;;;;;;;;;;;;;7.70;76.06;98909.69;5048048;28;19925;-82
2024/01/04 04:41:39;;;;;;;;;;;;;;;7.69;76.01;98918.41;5043317;28;19929;-80
2024/01/04 04:44:06;;;;;;;;;;;;;;;7.72;75.81;98915.69;5051897;28;20330;-82
2024/01/04 04:46:32;;;;;;;;;;;;;;;7.71;76.27;98909.63;5049408;28;19933;-81
2024/01/04 04:48:59;;;;;;;;;;;;;;;7.56;77.60;98926.59;5049429;28;19959;-81
2024/01/04 04:51:26;;;;;;;;;;;;;;;7.47;77.92;98932.91;5054332;28;19990;-81
2024/01/04 04:53:53;;;;;;;;;;;;;;;7.52;77.73;98930.19;5054690;28;19925;-81
2024/01/04 04:56:20;;;;;;;;;;;;;;;7.61;76.51;98927.31;5057899;28;19925;-80
2024/01/04 04:58:46;;;;;;;;;;;;;;;7.55;76.83;98934.47;5054025;28;19939;-82
2024/01/04 05:01:14;;;;;;;;;;;;;;;7.50;77.18;98952.84;5053243;28;19932;-81
2024/01/04 05:03:40;;;;;;;;;;;;;;;7.59;76.53;98960.44;5041495;28;19925;-82
2024/01/04 05:06:10;;;;;;;;;;;;;;;7.59;75.98;98963.06;5052859;28;19925;-82
2024/01/04 05:08:37;;;;;;;;;;;;;;;7.61;76.44;98966.47;5053697;28;19925;-81
2024/01/04 05:11:07;;;;;;;;;;;;;;;7.64;76.43;98982.03;5048435;28;20394;-80
2024/01/04 05:13:33;;;;;;;;;;;;;;;7.57;77.01;98990.09;5055517;28;20392;-81
2024/01/04 05:16:00;;;;;;;;;;;;;;;7.48;78.02;99006.84;5053166;28;19932;-81
2024/01/04 05:18:27;;;;;;;;;;;;;;;7.48;78.27;99017.28;5053172;28;19925;-81
2024/01/04 05:20:54;;;;;;;;;;;;;;;7.34;79.36;99009.78;5056741;28;20450;-81
2024/01/04 05:23:20;;;;;;;;;;;;;;;7.35;79.48;99014.13;5046727;28;19943;-82
2024/01/04 05:25:47;;;;;;;;;;;;;;;7.25;80.16;99020.47;5052475;28;19924;-81
2024/01/04 05:28:14;;;;;;;;;;;;;;;7.22;80.22;99024.00;5057085;28;19932;-81
2024/01/04 05:30:40;;;;;;;;;;;;;;;7.18;80.75;99031.94;5057482;28;19967;-80
2024/01/04 05:33:08;;;;;;;;;;;;;;;7.38;79.37;99042.75;5057198;28;19924;-80
2024/01/04 05:35:35;;;;;;;;;;;;;;;7.28;79.65;99036.03;5056855;28;19925;-82
2024/01/04 05:38:01;;;;;;;;;;;;;;;7.38;78.92;99062.78;5055358;28;19931;-81
2024/01/04 05:40:28;;;;;;;;;;;;;;;7.44;78.42;99057.41;5050189;28;19924;-81
2024/01/04 05:42:57;;;;;;;;;;;;;;;7.40;78.37;99056.63;5052435;28;19933;-85
2024/01/04 05:45:24;;;;;;;;;;;;;;;7.34;78.55;99058.53;5049936;28;19944;-81
2024/01/04 05:47:50;;;;;;;;;;;;;;;7.41;78.66;99073.16;5049850;28;19924;-81
2024/01/04 05:50:17;;;;;;;;;;;;;;;7.44;78.30;99080.91;5038835;28;19925;-82
2024/01/04 05:52:43;;;;;;;;;;;;;;;7.35;79.31;99083.75;5057478;28;20364;-82
2024/01/04 05:55:10;;;;;;;;;;;;;;;7.38;78.87;99099.31;5057446;28;19924;-82
2024/01/04 05:57:37;;;;;;;;;;;;;;;7.42;78.71;99114.88;5052477;28;19935;-80
2024/01/04 06:00:04;;;;;;;;;;;;;;;7.30;79.19;99123.00;5057534;28;19931;-82
2024/01/04 06:02:31;;;;;;;;;;;;;;;7.30;79.35;99110.78;5057823;28;20286;-84
2024/01/04 06:04:58;;;;;;;;;;;;;;;7.28;79.27;99135.19;5054545;28;19924;-84
2024/01/04 06:07:25;;;;;;;;;;;;;;;7.25;79.48;99128.28;5056528;28;19924;-82
2024/01/04 06:09:55;;;;;;;;;;;;;;;7.39;79.14;99143.66;5057296;28;19968;-81
2024/01/04 06:12:21;;;;;;;;;;;;;;;7.27;79.83;99146.53;5056950;28;19935;-82
2024/01/04 06:14:49;;;;;;;;;;;;;;;7.18;80.56;99157.19;5055341;28;19944;-82
2024/01/04 06:17:15;;;;;;;;;;;;;;;7.21;80.49;99168.44;5053714;28;19935;-82
2024/01/04 06:19:43;;;;;;;;;;;;;;;7.16;80.63;99166.81;5054072;28;19932;-81
2024/01/04 06:22:10;;;;;;;;;;;;;;;7.21;80.26;99172.75;5056032;28;20011;-82
2024/01/04 06:24:37;;;;;;;;;;;;;;;7.17;80.10;99178.94;5054292;28;19955;-83
2024/01/04 06:27:04;;;;;;;;;;;;;;;7.03;80.87;99200.09;5054844;28;19925;-82
2024/01/04 06:29:31;;;;;;;;;;;;;;;7.19;79.29;99193.66;5054195;28;19978;-83
2024/01/04 06:31:58;;;;;;;;;;;;;;;7.11;79.63;99200.78;5056103;28;19929;-88
2024/01/04 06:34:24;;;;;;;;;;;;;;;7.12;79.35;99184.25;5056146;28;20324;-81
2024/01/04 06:36:51;;;;;;;;;;;;;;;7.16;78.97;99198.97;5055516;28;19947;-82
2024/01/04 06:39:18;;;;;;;;;;;;;;;7.12;79.27;99212.94;5055559;28;19939;-83
2024/01/04 06:41:45;;;;;;;;;;;;;;;7.11;79.33;99217.31;5049368;28;19925;-81
2024/01/04 06:44:11;;;;;;;;;;;;;;;7.16;79.14;99224.19;5046889;28;19932;-81
2024/01/04 06:46:38;;;;;;;;;;;;;;;7.12;79.25;99233.81;5055418;28;19951;-81
2024/01/04 06:49:05;;;;;;;;;;;;;;;7.19;78.78;99245.84;5056018;28;19925;-81
2024/01/04 06:51:32;;;;;;;;;;;;;;;7.28;78.76;99260.47;5055939;28;19975;-81
2024/01/04 06:53:59;;;;;;;;;;;;;;;7.53;77.46;99249.50;5056191;28;20016;-81
2024/01/04 06:56:26;;;;;;;;;;;;;;;7.47;77.31;99266.16;5055529;28;19925;-81
2024/01/04 06:58:53;;;;;;;;;;;;;;;7.50;77.21;99260.88;5052021;28;20259;-82
2024/01/04 07:01:20;;;;;;;;;;;;;;;7.50;77.27;99281.75;5054371;28;19936;-82
2024/01/04 07:03:48;;;;;;;;;;;;;;;7.45;77.52;99292.28;5051594;28;19925;-84
2024/01/04 07:06:14;;;;;;;;;;;;;;;7.49;77.23;99287.88;5049109;28;20012;-83
2024/01/04 07:08:41;;;;;;;;;;;;;;;7.36;78.70;99291.63;5052807;28;19925;-82
2024/01/04 07:11:08;;;;;;;;;;;;;;;7.37;78.14;99280.28;5055350;28;19925;-80
2024/01/04 07:13:34;;;;;;;;;;;;;;;7.48;77.50;99301.81;5054885;28;19932;-82
2024/01/04 07:16:04;;;;;;;;;;;;;;;7.55;77.15;99298.19;5048674;28;19929;-80
2024/01/04 07:18:31;;;;;;;;;;;;;;;7.51;77.62;99293.91;5053802;28;19924;-80
2024/01/04 07:20:59;;;;;;;;;;;;;;;7.48;77.73;99304.44;5050440;28;19928;-81
2024/01/04 07:23:26;;;;;;;;;;;;;;;7.54;77.33;99317.34;5048357;28;19935;-83
2024/01/04 07:25:52;;;;;;;;;;;;;;;7.54;77.18;99309.53;5048201;28;19929;-81
2024/01/04 07:28:19;;;;;;;;;;;;;;;7.61;76.86;99321.56;5043464;28;19975;-81
2024/01/04 07:30:46;;;;;;;;;;;;;;;7.46;78.07;99319.28;5049977;28;19924;-81
2024/01/04 07:33:15;;;;;;;;;;;;;;;7.49;77.76;99327.03;5055276;28;19931;-83
2024/01/04 07:35:41;;;;;;;;;;;;;;;7.48;77.72;99331.38;5051703;28;20092;-82
2024/01/04 07:38:09;;;;;;;;;;;;;;;7.43;77.96;99330.63;5044611;28;19924;-82
2024/01/04 07:40:36;;;;;;;;;;;;;;;7.51;77.02;99325.25;5058515;28;19947;-82
2024/01/04 07:43:02;;;;;;;;;;;;;;;7.54;76.46;99325.19;5049545;28;19925;-81
2024/01/04 07:45:29;;;;;;;;;;;;;;;7.56;76.20;99332.97;5049759;28;19987;-81
2024/01/04 07:47:56;;;;;;;;;;;;;;;7.52;76.43;99321.75;5052120;28;19933;-81
2024/01/04 07:50:23;;;;;;;;;;;;;;;7.44;77.26;99339.31;5050443;28;19970;-82
2024/01/04 07:52:49;;;;;;;;;;;;;;;7.46;77.00;99337.56;5051103;28;19929;-84
2024/01/04 07:55:16;;;;;;;;;;;;;;;7.45;76.30;99346.28;5052132;28;19925;-82
2024/01/04 07:57:43;;;;;;;;;;;;;;;7.45;76.09;99351.50;5046167;28;20004;-82
2024/01/04 08:00:10;;;;;;;;;;;;;;;7.39;76.65;99359.44;5048286;28;20372;-82
2024/01/04 08:02:36;;;;;;;;;;;;;;;7.31;77.09;99349.13;5054750;28;19931;-82
2024/01/04 08:05:03;;;;;;;;;;;;;;;7.40;76.06;99368.97;5054102;28;20015;-84
2024/01/04 08:07:30;;;;;;;;;;;;;;;7.34;76.21;99369.09;5053871;28;19975;-82
2024/01/04 08:09:57;;;;;;;;;;;;;;;7.26;76.65;99377.09;5048077;28;19933;-82
2024/01/04 08:12:24;;;;;;;;;;;;;;;7.32;75.93;99371.75;5049832;28;20008;-82
2024/01/04 08:14:51;;;;;;;;;;;;;;;7.37;75.34;99372.53;5049181;28;19925;-81
2024/01/04 08:17:18;;;;;;;;;;;;;;;7.40;74.73;99380.28;5044993;28;20377;-83
2024/01/04 08:19:46;;;;;;;;;;;;;;;7.27;76.13;99384.00;5053235;28;19925;-81
2024/01/04 08:22:13;;;;;;;;;;;;;;;7.31;75.74;99381.34;5044729;28;19944;-83
2024/01/04 08:24:40;;;;;;;;;;;;;;;7.26;75.89;99388.38;5054471;28;20002;-83
2024/01/04 08:27:07;;;;;;;;;;;;;;;7.31;75.27;99381.34;5041857;28;20036;-81
2024/01/04 08:29:34;;;;;;;;;;;;;;;7.34;75.30;99387.38;5045302;28;19932;-81
2024/01/04 08:32:01;;;;;;;;;;;;;;;7.35;75.01;99374.28;5051191;28;20011;-81
2024/01/04 08:34:28;;;;;;;;;;;;;;;7.31;75.75;99390.88;5053275;28;19931;-81
2024/01/04 08:36:54;;;;;;;;;;;;;;;7.40;74.95;99390.75;5049751;28;19989;-82
2024/01/04 08:39:21;;;;;;;;;;;;;;;7.43;74.98;99397.63;5041529;28;19932;-82
2024/01/04 08:41:48;;;;;;;;;;;;;;;7.42;74.81;99401.16;5028117;28;19925;-83
2024/01/04 08:44:14;;;;;;;;;;;;;;;7.50;74.14;99401.84;5047127;28;19925;-82
2024/01/04 08:46:41;;;;;;;;;;;;;;;7.46;74.32;99408.88;5039904;28;19934;-82
2024/01/04 08:49:08;;;;;;;;;;;;;;;7.48;73.69;99399.25;5052249;28;19925;-86
2024/01/04 08:51:35;;;;;;;;;;;;;;;7.39;74.71;99411.66;5045376;28;19978;-82
2024/01/04 08:54:02;;;;;;;;;;;;;;;7.40;74.22;99419.44;5052083;28;19928;-82
2024/01/04 08:56:29;;;;;;;;;;;;;;;7.38;74.18;99412.53;5053449;28;19933;-82
2024/01/04 08:58:56;;;;;;;;;;;;;;;7.43;73.99;99410.69;5054809;28;20019;-81
2024/01/04 09:01:23;;;;;;;;;;;;;;;7.43;74.22;99411.56;5053851;28;20001;-83
2024/01/04 09:03:50;;;;;;;;;;;;;;;7.41;74.48;99412.47;5055670;28;19990;-82
2024/01/04 09:06:17;;;;;;;;;;;;;;;7.41;74.31;99428.13;5049249;28;19929;-83
2024/01/04 09:08:44;;;;;;;;;;;;;;;7.52;73.67;99431.41;5053208;28;19931;-82
2024/01/04 09:11:10;;;;;;;;;;;;;;;7.51;73.81;99434.06;5049726;28;19967;-83
2024/01/04 09:13:37;;;;;;;;;;;;;;;7.55;73.37;99433.09;5052368;28;19943;-88
2024/01/04 09:16:04;;;;;;;;;;;;;;;7.55;73.84;99436.56;5051880;28;19932;-82
2024/01/04 09:18:33;;;;;;;;;;;;;;;7.62;73.52;99440.78;5057029;28;19931;-83
2024/01/04 09:21:00;;;;;;;;;;;;;;;7.64;73.17;99448.59;5046273;28;19937;-82
2024/01/04 09:23:26;;;;;;;;;;;;;;;7.54;74.09;99455.72;5052283;28;19948;-83
2024/01/04 09:25:53;;;;;;;;;;;;;;;7.50;74.65;99461.88;5048822;28;19928;-83
2024/01/04 09:28:22;;;;;;;;;;;;;;;7.43;75.52;99465.50;5056253;28;19928;-82
2024/01/04 09:30:48;;;;;;;;;;;;;;;7.43;75.77;99462.88;5048061;28;19933;-82
2024/01/04 09:33:15;;;;;;;;;;;;;;;7.35;76.77;99481.31;5043376;28;19931;-86
2024/01/04 09:35:42;;;;;;;;;;;;;;;7.25;78.05;99491.03;5052499;28;19947;-83
2024/01/04 09:38:09;;;;;;;;;;;;;;;7.22;77.96;99496.31;5055269;28;20009;-83
2024/01/04 09:40:36;;;;;;;;;;;;;;;7.18;78.55;99483.34;5055074;28;19924;-82
2024/01/04 09:43:03;;;;;;;;;;;;;;;7.18;78.39;99496.38;5048451;28;19925;-82
2024/01/04 09:45:29;;;;;;;;;;;;;;;7.17;77.98;99492.03;5054337;28;19925;-83
2024/01/04 09:47:56;;;;;;;;;;;;;;;7.24;76.53;99484.09;5054212;28;19925;-81
2024/01/04 09:50:23;;;;;;;;;;;;;;;7.22;77.35;99496.31;5052712;28;19983;-81
2024/01/04 09:52:51;;;;;;;;;;;;;;;7.23;76.76;99503.25;5053402;28;19948;-82
2024/01/04 09:55:18;;;;;;;;;;;;;;;7.27;76.05;99510.16;5054179;28;19932;-82
2024/01/04 09:57:45;;;;;;;;;;;;;;;7.34;75.17;99500.44;5050505;28;19932;-83
2024/01/04 10:00:12;;;;;;;;;;;;;;;7.62;73.12;99500.84;5042513;28;19996;-83
2024/01/04 10:02:40;;;;;;;;;;;;;;;7.65;73.34;99498.19;5052599;28;20008;-85
2024/01/04 10:05:07;;;;;;;;;;;;;;;7.77;73.23;99498.84;5051491;28;19925;-81
2024/01/04 10:07:33;;;;;;;;;;;;;;;7.84;72.07;99492.63;5051725;28;19925;-83
2024/01/04 10:10:08;;;;;;;;;;;;;;;7.85;71.34;99489.13;5053452;28;20153;-83
2024/01/04 10:12:36;;;;;;;;;;;;;;;7.95;71.89;99497.63;5051253;28;19940;-82
2024/01/04 10:15:03;;;;;;;;;;;;;;;8.04;70.00;99486.13;5053474;28;19924;-82
2024/01/04 10:17:32;;;;;;;;;;;;;;;8.10;70.03;99492.09;5053873;28;19964;-82
2024/01/04 10:19:58;;;;;;;;;;;;;;;8.18;70.13;99520.69;5055943;28;19928;-82
2024/01/04 10:22:25;;;;;;;;;;;;;;;8.15;69.80;99505.97;5052660;28;19932;-84
2024/01/04 10:24:54;;;;;;;;;;;;;;;8.22;70.46;99509.28;5053244;28;19924;-83
2024/01/04 10:27:22;;;;;;;;;;;;;;;8.14;69.44;99519.03;5053902;28;20098;-82
2024/01/04 10:29:51;;;;;;;;;;;;;;;8.08;69.33;99520.03;5056630;28;19929;-82
2024/01/04 10:32:18;;;;;;;;;;;;;;;8.01;69.99;99532.34;5048655;28;19964;-84
2024/01/04 10:34:47;;;;;;;;;;;;;;;8.10;69.46;99520.00;5052253;28;20008;-82
2024/01/04 10:37:17;;;;;;;;;;;;;;;8.10;70.40;99530.44;5055092;28;20016;-82
2024/01/04 10:39:56;;;;;;;;;;;;;;;8.14;70.68;99537.31;5052996;28;19929;-83
2024/01/04 10:42:23;;;;;;;;;;;;;;;8.11;70.38;99540.00;5040434;28;19933;-83
2024/01/04 10:44:52;;;;;;;;;;;;;;;7.87;71.01;99534.34;5046061;28;19966;-82
2024/01/04 10:47:19;;;;;;;;;;;;;;;7.86;71.21;99542.22;5047785;28;19956;-82
2024/01/04 10:49:47;;;;;;;;;;;;;;;7.79;71.00;99539.72;5049402;28;19924;-83
2024/01/04 10:52:15;;;;;;;;;;;;;;;7.82;70.69;99541.41;5057208;28;19936;-82
2024/01/04 10:54:42;;;;;;;;;;;;;;;8.02;69.61;99522.75;5043966;28;20011;-82
2024/01/04 10:57:10;;;;;;;;;;;;;;;7.97;70.21;99543.72;5044180;28;19932;-83
2024/01/04 10:59:37;;;;;;;;;;;;;;;8.14;70.54;99532.09;5046489;28;20078;-82
2024/01/04 11:02:03;;;;;;;;;;;;;;;8.10;69.72;99539.16;5045553;28;19932;-82
2024/01/04 11:04:30;;;;;;;;;;;;;;;8.01;69.29;99548.03;5040151;28;19929;-82
2024/01/04 11:06:57;;;;;;;;;;;;;;;8.11;70.36;99540.00;5041524;28;19979;-84
2024/01/04 11:09:24;;;;;;;;;;;;;;;8.09;69.81;99552.25;5058333;28;19925;-82
2024/01/04 11:11:52;;;;;;;;;;;;;;;8.25;68.61;99548.44;5047105;28;19956;-82
2024/01/04 11:14:22;;;;;;;;;;;;;;;8.29;68.97;99571.00;5047795;28;20056;-81
2024/01/04 11:17:07;;;;;;;;;;;;;;;8.29;68.52;99560.56;5047878;28;20315;-82
2024/01/04 11:19:52;;;;;;;;;;;;;;;8.32;68.93;99544.81;5045647;28;19931;-83
2024/01/04 11:22:28;;;;;;;;;;;;;;;8.32;68.31;99555.25;5042316;28;19925;-84
2024/01/04 11:25:14;;;;;;;;;;;;;;;8.14;69.02;99558.22;5040294;28;19925;-82
2024/01/04 11:27:41;;;;;;;;;;;;;;;8.15;69.41;99575.63;5046893;28;19929;-85
2024/01/04 11:30:08;;;;;;;;;;;;;;;8.05;69.12;99561.03;5042583;28;19925;-82
2024/01/04 11:32:35;;;;;;;;;;;;;;;7.96;70.11;99562.91;5044893;28;19947;-82
2024/01/04 11:35:02;;;;;;;;;;;;;;;7.92;71.34;99565.59;5042340;28;19968;-84
2024/01/04 11:37:31;;;;;;;;;;;;;;;8.05;70.62;99561.03;5043818;28;20003;-82
2024/01/04 11:39:58;;;;;;;;;;;;;;;7.97;70.86;99556.81;5043589;28;19940;-82
2024/01/04 11:42:35;;;;;;;;;;;;;;;7.93;70.23;99564.72;5046124;28;19925;-82
2024/01/04 11:45:05;;;;;;;;;;;;;;;7.88;70.27;99559.59;5047893;28;19940;-82
2024/01/04 11:47:36;;;;;;;;;;;;;;;7.81;70.74;99552.75;5042161;28;19925;-83
2024/01/04 11:50:12;;;;;;;;;;;;;;;7.77;71.27;99571.97;5050057;28;20016;-82
2024/01/04 11:53:08;;;;;;;;;;;;;;;7.70;71.75;99560.75;5049668;28;19959;-83
2024/01/04 11:55:51;;;;;;;;;;;;;;;7.73;70.77;99570.31;5044180;28;19933;-81
2024/01/04 11:58:26;;;;;;;;;;;;;;;7.77;70.95;99551.09;5044588;28;19935;-83
2024/01/04 12:00:58;;;;;;;;;;;;;;;7.83;71.02;99550.97;5045171;28;19929;-83
2024/01/04 12:03:28;;;;;;;;;;;;;;;7.91;69.58;99533.41;5042028;28;19952;-83
2024/01/04 12:05:55;;;;;;;;;;;;;;;7.89;70.42;99535.16;5045321;28;20024;-83
2024/01/04 12:08:28;;;;;;;;;;;;;;;8.03;67.94;99544.53;5047202;28;19948;-83
2024/01/04 12:10:56;;;;;;;;;;;;;;;7.98;69.13;99549.81;5061290;28;19932;-82
2024/01/04 12:13:23;;;;;;;;;;;;;;;8.18;67.43;99552.06;5052505;28;19925;-83
2024/01/04 12:15:51;;;;;;;;;;;;;;;8.22;67.23;99551.09;5051457;28;19975;-82
2024/01/04 12:18:18;;;;;;;;;;;;;;;8.39;67.29;99560.38;5051837;28;19924;-82
2024/01/04 12:20:48;;;;;;;;;;;;;;;8.65;66.17;99542.41;5047116;28;19978;-81
2024/01/04 12:23:15;;;;;;;;;;;;;;;8.61;66.59;99553.84;5053606;28;19925;-82
2024/01/04 12:25:41;;;;;;;;;;;;;;;8.66;66.52;99538.91;5035284;28;19942;-82
2024/01/04 12:28:08;;;;;;;;;;;;;;;8.80;65.53;99535.97;5048599;28;19929;-82
2024/01/04 12:30:38;;;;;;;;;;;;;;;8.90;66.64;99536.63;5057584;28;19964;-82
2024/01/04 12:33:06;;;;;;;;;;;;;;;8.99;66.19;99548.66;5057508;28;19925;-82
2024/01/04 12:35:33;;;;;;;;;;;;;;;8.93;65.28;99541.81;5053533;28;19924;-85
2024/01/04 12:37:59;;;;;;;;;;;;;;;8.92;64.09;99544.44;5056375;28;19931;-82
2024/01/04 12:40:26;;;;;;;;;;;;;;;9.00;65.05;99548.63;5052922;28;19925;-83
2024/01/04 12:42:53;;;;;;;;;;;;;;;9.16;64.37;99549.13;5052157;28;20048;-83
2024/01/04 12:45:22;;;;;;;;;;;;;;;9.11;64.22;99556.25;5055687;28;19998;-83
2024/01/04 12:47:59;;;;;;;;;;;;;;;8.94;64.92;99548.75;5038307;28;19936;-83
2024/01/04 12:50:27;;;;;;;;;;;;;;;8.93;64.72;99565.34;5048283;28;19929;-82
2024/01/04 12:52:54;;;;;;;;;;;;;;;8.85;66.58;99557.69;5057213;28;20004;-83
2024/01/04 12:55:21;;;;;;;;;;;;;;;8.79;66.39;99567.41;5056003;28;20311;-83
2024/01/04 12:57:47;;;;;;;;;;;;;;;8.64;67.03;99572.06;5056406;28;19925;-82
2024/01/04 13:00:15;;;;;;;;;;;;;;;8.50;67.62;99576.72;5053544;28;19929;-81